Time;durP1;ratioP1;P1;durP2;ratioP2;P2;SDS_P1;SDS_P2;PMS_P1;PMS_P2;Temp;Humidity;BMP_temperature;BMP_pressure;BME280_temperature;BME280_humidity;BME280_pressure;Samples;Min_cycle;Max_cycle;Signal;HPM_P1;HPM_P2
2022/03/30 00:01:11;;;;;;;;;;;;;;;10.51;53.92;99245.53;5021121;28;19933;-85
2022/03/30 00:03:37;;;;;;;;;;;;;;;10.23;54.76;99247.84;5007403;28;19956;-86
2022/03/30 00:06:05;;;;;;;;;;;;;;;10.03;55.11;99248.25;5005408;28;19933;-86
2022/03/30 00:08:30;;;;;;;;;;;;;;;9.93;54.91;99251.97;5005971;28;19980;-85
2022/03/30 00:10:56;;;;;;;;;;;;;;;9.97;54.94;99246.59;5023798;28;20359;-85
2022/03/30 00:13:21;;;;;;;;;;;;;;;10.05;53.96;99243.81;5005418;28;19972;-85
2022/03/30 00:15:47;;;;;;;;;;;;;;;9.80;54.27;99239.03;5005568;28;19926;-85
2022/03/30 00:18:12;;;;;;;;;;;;;;;9.82;55.20;99241.63;5005450;28;19925;-85
2022/03/30 00:20:38;;;;;;;;;;;;;;;9.75;54.90;99232.13;5006570;28;20315;-86
2022/03/30 00:23:03;;;;;;;;;;;;;;;9.81;54.75;99238.13;5008122;28;20047;-86
2022/03/30 00:25:28;;;;;;;;;;;;;;;9.88;55.49;99238.03;5009731;28;20431;-86
2022/03/30 00:27:54;;;;;;;;;;;;;;;9.96;55.09;99238.72;5009454;28;20339;-85
2022/03/30 00:30:20;;;;;;;;;;;;;;;10.05;55.38;99228.00;5009066;28;20024;-85
2022/03/30 00:32:45;;;;;;;;;;;;;;;9.99;55.08;99230.78;5024557;28;19941;-86
2022/03/30 00:35:11;;;;;;;;;;;;;;;9.90;55.67;99231.84;5009166;28;19929;-84
2022/03/30 00:37:37;;;;;;;;;;;;;;;9.95;54.98;99237.03;5008868;28;21253;-85
2022/03/30 00:40:04;;;;;;;;;;;;;;;9.63;56.36;99238.50;5009203;28;19924;-85
2022/03/30 00:42:29;;;;;;;;;;;;;;;9.56;57.09;99235.09;5041812;28;19921;-85
2022/03/30 00:44:54;;;;;;;;;;;;;;;9.84;56.81;99235.44;5008413;28;19987;-83
2022/03/30 00:47:21;;;;;;;;;;;;;;;9.90;56.45;99228.31;5009633;28;19989;-84
2022/03/30 00:49:47;;;;;;;;;;;;;;;9.65;57.57;99232.31;5009804;28;20012;-84
2022/03/30 00:52:12;;;;;;;;;;;;;;;9.71;56.84;99230.44;5010111;28;20019;-85
2022/03/30 00:54:39;;;;;;;;;;;;;;;9.90;56.24;99225.69;5037028;28;20376;-84
2022/03/30 00:57:08;;;;;;;;;;;;;;;9.52;55.82;99220.25;4989754;28;19953;-85
2022/03/30 00:59:33;;;;;;;;;;;;;;;9.43;56.18;99223.91;5005354;28;19922;-85
2022/03/30 01:01:59;;;;;;;;;;;;;;;9.50;56.13;99222.91;5021396;28;19929;-85
2022/03/30 01:04:28;;;;;;;;;;;;;;;9.47;56.37;99222.97;4999453;28;19980;-84
2022/03/30 01:06:53;;;;;;;;;;;;;;;9.50;55.98;99219.44;4991111;28;19926;-85
2022/03/30 01:09:18;;;;;;;;;;;;;;;9.43;56.65;99221.28;4990025;28;19917;-84
2022/03/30 01:11:44;;;;;;;;;;;;;;;9.37;56.73;99210.84;4990293;28;19964;-85
2022/03/30 01:14:10;;;;;;;;;;;;;;;8.91;57.18;99224.78;4990014;28;19972;-86
2022/03/30 01:16:36;;;;;;;;;;;;;;;9.04;57.33;99222.84;5026488;28;20030;-85
2022/03/30 01:19:08;;;;;;;;;;;;;;;8.76;57.39;99221.50;5041154;28;20094;-85
2022/03/30 01:21:37;;;;;;;;;;;;;;;8.88;57.15;99223.09;5009713;28;19979;-86
2022/03/30 01:24:03;;;;;;;;;;;;;;;8.40;58.62;99210.59;4993360;28;19961;-85
2022/03/30 01:26:28;;;;;;;;;;;;;;;8.50;59.79;99221.03;5004871;28;19960;-87
2022/03/30 01:28:54;;;;;;;;;;;;;;;8.68;59.10;99223.41;5002366;28;19926;-85
2022/03/30 01:34:04;;;;;;;;;;;;;;;8.72;60.17;99218.94;5007531;28;20358;-85
2022/03/30 01:36:29;;;;;;;;;;;;;;;8.80;59.58;99218.84;5009218;28;19918;-85
2022/03/30 01:38:55;;;;;;;;;;;;;;;8.89;59.07;99218.69;5040404;28;19948;-85
2022/03/30 01:41:20;;;;;;;;;;;;;;;8.79;58.61;99220.59;5040763;28;19984;-84
2022/03/30 01:43:45;;;;;;;;;;;;;;;8.89;57.81;99224.81;5006742;28;19987;-84
2022/03/30 01:46:11;;;;;;;;;;;;;;;8.45;59.05;99233.34;5007651;28;20399;-84
2022/03/30 01:48:36;;;;;;;;;;;;;;;8.52;59.57;99224.50;5008458;28;20764;-84
2022/03/30 01:51:01;;;;;;;;;;;;;;;8.38;59.36;99233.41;5008559;28;20461;-85
2022/03/30 01:53:27;;;;;;;;;;;;;;;8.21;60.16;99240.63;5007178;28;20380;-85
2022/03/30 01:55:52;;;;;;;;;;;;;;;7.93;61.67;99254.09;5007775;28;20396;-85
2022/03/30 01:58:18;;;;;;;;;;;;;;;8.05;61.49;99245.22;5019822;28;19944;-84
2022/03/30 02:00:43;;;;;;;;;;;;;;;8.27;60.76;99253.69;5003684;28;20477;-85
2022/03/30 02:03:09;;;;;;;;;;;;;;;7.85;61.14;99248.94;5022911;28;19930;-84
2022/03/30 02:05:34;;;;;;;;;;;;;;;8.12;60.85;99248.63;5007627;28;19917;-84
2022/03/30 02:08:00;;;;;;;;;;;;;;;8.02;60.66;99245.25;5006736;28;19925;-85
2022/03/30 02:10:25;;;;;;;;;;;;;;;8.12;59.99;99254.75;5007864;28;20303;-84
2022/03/30 02:12:50;;;;;;;;;;;;;;;7.81;61.41;99255.09;5006990;28;19922;-84
2022/03/30 02:15:16;;;;;;;;;;;;;;;7.93;60.97;99254.09;5008317;28;19928;-86
2022/03/30 02:17:41;;;;;;;;;;;;;;;7.93;60.49;99250.63;5028109;28;19951;-84
2022/03/30 02:20:08;;;;;;;;;;;;;;;7.82;60.81;99251.59;5007556;28;19949;-84
2022/03/30 02:22:33;;;;;;;;;;;;;;;7.60;61.70;99257.94;5006770;28;20032;-85
2022/03/30 02:24:59;;;;;;;;;;;;;;;7.64;61.59;99255.28;5007657;28;20617;-84
2022/03/30 02:27:24;;;;;;;;;;;;;;;7.75;61.46;99256.94;5007628;28;19922;-85
2022/03/30 02:29:51;;;;;;;;;;;;;;;7.78;61.65;99249.88;5006514;28;19987;-86
2022/03/30 02:32:16;;;;;;;;;;;;;;;7.81;60.87;99252.47;5006463;28;20380;-85
2022/03/30 02:34:42;;;;;;;;;;;;;;;7.00;64.42;99256.72;5005573;28;19976;-85
2022/03/30 02:37:08;;;;;;;;;;;;;;;7.14;64.36;99249.63;5006948;28;19940;-85
2022/03/30 02:39:34;;;;;;;;;;;;;;;6.58;66.78;99259.63;4989095;28;19918;-84
2022/03/30 02:41:59;;;;;;;;;;;;;;;7.12;66.13;99254.00;5002275;28;19925;-84
2022/03/30 02:44:25;;;;;;;;;;;;;;;6.86;66.96;99243.72;5007639;28;19925;-85
2022/03/30 02:46:50;;;;;;;;;;;;;;;7.34;65.01;99243.34;5006833;28;19940;-84
2022/03/30 02:49:15;;;;;;;;;;;;;;;7.57;64.33;99250.09;5007346;28;19967;-84
2022/03/30 02:51:41;;;;;;;;;;;;;;;7.80;64.16;99256.00;5006521;28;19929;-84
2022/03/30 02:54:06;;;;;;;;;;;;;;;7.97;63.55;99253.19;5004949;28;20036;-84
2022/03/30 02:56:32;;;;;;;;;;;;;;;7.69;64.39;99252.59;5006167;28;19979;-84
2022/03/30 02:58:58;;;;;;;;;;;;;;;7.93;63.90;99245.38;5006573;28;19925;-85
2022/03/30 03:01:23;;;;;;;;;;;;;;;8.16;62.55;99251.22;5006373;28;19921;-85
2022/03/30 03:03:49;;;;;;;;;;;;;;;8.23;61.87;99244.09;5006056;28;19931;-88
2022/03/30 03:06:14;;;;;;;;;;;;;;;8.23;61.28;99252.00;5051889;28;19934;-84
2022/03/30 03:08:39;;;;;;;;;;;;;;;8.18;61.86;99249.41;5007054;28;19956;-83
2022/03/30 03:11:05;;;;;;;;;;;;;;;8.29;61.32;99246.66;5007510;28;20027;-83
2022/03/30 03:13:30;;;;;;;;;;;;;;;8.51;60.52;99249.03;5006470;28;20059;-84
2022/03/30 03:15:56;;;;;;;;;;;;;;;8.52;60.40;99246.38;5008085;28;20023;-86
2022/03/30 03:18:21;;;;;;;;;;;;;;;8.63;59.85;99240.97;5006066;28;19930;-84
2022/03/30 03:20:47;;;;;;;;;;;;;;;8.49;59.96;99243.78;5007921;28;19933;-87
2022/03/30 03:23:13;;;;;;;;;;;;;;;8.38;60.15;99243.91;5006753;28;20403;-89
2022/03/30 03:25:40;;;;;;;;;;;;;;;8.32;59.88;99241.34;5006455;28;19975;-88
2022/03/30 03:28:06;;;;;;;;;;;;;;;8.21;59.59;99245.91;5041978;28;20004;-90
2022/03/30 03:30:31;;;;;;;;;;;;;;;8.22;59.65;99238.00;5028024;28;20060;-89
2022/03/30 03:32:56;;;;;;;;;;;;;;;8.27;59.27;99242.34;5040470;28;20576;-86
2022/03/30 03:35:22;;;;;;;;;;;;;;;8.17;59.60;99250.31;5009511;28;20490;-88
2022/03/30 03:37:48;;;;;;;;;;;;;;;8.13;60.09;99243.38;5008230;28;20384;-89
2022/03/30 03:40:14;;;;;;;;;;;;;;;8.16;59.74;99243.31;5039229;28;19940;-89
2022/03/30 03:42:39;;;;;;;;;;;;;;;8.01;60.44;99254.00;5007570;28;19926;-89
2022/03/30 03:45:05;;;;;;;;;;;;;;;8.03;60.45;99253.13;5007527;28;19918;-89
2022/03/30 03:47:31;;;;;;;;;;;;;;;8.13;59.93;99259.13;5011536;28;20010;-87
2022/03/30 03:49:58;;;;;;;;;;;;;;;7.97;60.55;99263.69;5012420;28;19976;-92
2022/03/30 03:52:23;;;;;;;;;;;;;;;7.80;61.09;99261.25;5007707;28;20422;-83
2022/03/30 03:54:49;;;;;;;;;;;;;;;7.51;61.52;99261.56;5007491;28;19922;-83
2022/03/30 03:57:14;;;;;;;;;;;;;;;7.48;62.55;99257.19;5008718;28;19972;-84
2022/03/30 03:59:40;;;;;;;;;;;;;;;7.28;63.59;99256.50;5011094;28;19979;-83
2022/03/30 04:02:07;;;;;;;;;;;;;;;6.91;65.29;99269.91;5027016;28;20326;-84
2022/03/30 04:04:32;;;;;;;;;;;;;;;7.31;64.07;99267.84;5047478;28;19936;-83
2022/03/30 04:06:58;;;;;;;;;;;;;;;7.44;63.74;99271.22;5020893;28;19917;-83
2022/03/30 04:09:23;;;;;;;;;;;;;;;7.68;62.94;99278.00;5014069;28;19922;-83
2022/03/30 04:11:48;;;;;;;;;;;;;;;7.84;62.36;99272.59;5012530;28;19917;-86
2022/03/30 04:14:17;;;;;;;;;;;;;;;8.09;61.11;99278.44;5024566;28;20339;-85
2022/03/30 04:16:43;;;;;;;;;;;;;;;8.04;61.28;99289.00;5026922;28;20023;-84
2022/03/30 04:19:09;;;;;;;;;;;;;;;7.81;61.89;99285.75;5017788;28;20016;-85
2022/03/30 04:21:34;;;;;;;;;;;;;;;7.66;61.86;99285.03;5010288;28;20397;-86
2022/03/30 04:24:00;;;;;;;;;;;;;;;7.47;62.92;99283.44;5011278;28;19922;-86
2022/03/30 04:26:25;;;;;;;;;;;;;;;7.15;63.73;99279.31;5011233;28;20471;-85
2022/03/30 04:28:50;;;;;;;;;;;;;;;7.43;62.93;99269.50;5035776;28;19932;-85
2022/03/30 04:31:16;;;;;;;;;;;;;;;7.45;62.95;99272.97;5039312;28;19932;-84
2022/03/30 04:33:41;;;;;;;;;;;;;;;7.37;63.25;99266.94;5011091;28;20040;-85
2022/03/30 04:36:06;;;;;;;;;;;;;;;7.46;62.62;99268.56;5010204;28;19925;-84
2022/03/30 04:38:32;;;;;;;;;;;;;;;7.42;62.42;99265.13;5018525;28;20008;-84
2022/03/30 04:40:58;;;;;;;;;;;;;;;7.46;62.28;99269.47;5023721;28;19926;-83
2022/03/30 04:43:23;;;;;;;;;;;;;;;7.48;61.58;99270.31;4997172;28;20304;-85
2022/03/30 04:45:49;;;;;;;;;;;;;;;7.29;61.76;99273.97;5010508;28;19918;-85
2022/03/30 04:48:14;;;;;;;;;;;;;;;7.49;61.76;99273.78;5009912;28;19924;-84
2022/03/30 04:50:39;;;;;;;;;;;;;;;7.30;62.10;99275.72;5003487;28;20454;-85
2022/03/30 04:53:05;;;;;;;;;;;;;;;7.49;62.34;99286.91;5003206;28;20012;-85
2022/03/30 04:55:31;;;;;;;;;;;;;;;7.50;62.64;99280.78;4992295;28;19928;-87
2022/03/30 04:57:56;;;;;;;;;;;;;;;7.68;62.32;99282.38;5037216;28;19965;-88
2022/03/30 05:00:21;;;;;;;;;;;;;;;7.92;62.16;99283.88;5010056;28;20023;-89
2022/03/30 05:02:47;;;;;;;;;;;;;;;8.20;61.45;99278.31;5010058;28;20019;-88
2022/03/30 05:05:12;;;;;;;;;;;;;;;8.46;60.91;99269.25;5009841;28;19922;-88
2022/03/30 05:07:38;;;;;;;;;;;;;;;8.51;60.47;99277.94;5009988;28;19921;-87
2022/03/30 05:10:05;;;;;;;;;;;;;;;8.70;59.83;99281.22;5024042;28;19925;-85
2022/03/30 05:12:31;;;;;;;;;;;;;;;8.75;59.85;99282.88;5010435;28;20004;-85
2022/03/30 05:14:56;;;;;;;;;;;;;;;8.83;60.17;99284.53;5021390;28;20144;-85
2022/03/30 05:17:21;;;;;;;;;;;;;;;8.83;59.95;99282.75;5031464;28;19926;-85
2022/03/30 05:19:48;;;;;;;;;;;;;;;8.87;59.92;99273.09;4991314;28;20004;-85
2022/03/30 05:22:13;;;;;;;;;;;;;;;8.89;61.50;99269.53;4990681;28;20373;-85
2022/03/30 05:24:39;;;;;;;;;;;;;;;9.07;61.97;99267.53;4990413;28;19926;-85
2022/03/30 05:27:04;;;;;;;;;;;;;;;9.42;59.39;99279.22;4990047;28;19921;-84
2022/03/30 05:29:30;;;;;;;;;;;;;;;9.25;59.10;99288.28;5002723;28;19929;-84
2022/03/30 05:31:56;;;;;;;;;;;;;;;9.48;58.34;99282.63;5009599;28;19921;-85
2022/03/30 05:34:22;;;;;;;;;;;;;;;9.70;57.51;99281.38;5041004;28;19928;-85
2022/03/30 05:36:48;;;;;;;;;;;;;;;9.63;57.95;99285.88;5040972;28;19925;-86
2022/03/30 05:39:13;;;;;;;;;;;;;;;9.79;57.85;99290.00;5039136;28;19925;-86
2022/03/30 05:41:38;;;;;;;;;;;;;;;9.76;58.75;99295.31;5009392;28;19988;-85
2022/03/30 05:44:04;;;;;;;;;;;;;;;10.12;58.31;99286.75;5008872;28;19929;-87
2022/03/30 05:46:30;;;;;;;;;;;;;;;10.09;57.51;99287.69;5036688;28;19921;-87
2022/03/30 05:48:55;;;;;;;;;;;;;;;10.34;56.99;99280.16;5009742;28;19921;-88
2022/03/30 05:51:20;;;;;;;;;;;;;;;10.07;57.66;99284.22;5009481;28;19928;-89
2022/03/30 05:53:47;;;;;;;;;;;;;;;10.21;57.74;99283.94;5009517;28;19921;-88
2022/03/30 05:56:12;;;;;;;;;;;;;;;10.30;57.21;99285.50;5007934;28;20726;-88
2022/03/30 05:58:37;;;;;;;;;;;;;;;10.19;58.04;99291.88;5007747;28;19929;-89
2022/03/30 06:01:03;;;;;;;;;;;;;;;10.31;57.57;99290.75;5009348;28;19922;-89
2022/03/30 06:03:28;;;;;;;;;;;;;;;10.52;56.38;99291.25;5009163;28;19932;-89
2022/03/30 06:05:54;;;;;;;;;;;;;;;10.23;56.53;99290.03;5041245;28;19945;-88
2022/03/30 06:08:19;;;;;;;;;;;;;;;10.91;55.77;99291.25;5008801;28;19949;-86
2022/03/30 06:10:44;;;;;;;;;;;;;;;11.50;54.89;99292.50;5008935;28;19960;-86
2022/03/30 06:13:10;;;;;;;;;;;;;;;11.77;54.22;99286.50;5008564;28;19922;-86
2022/03/30 06:15:37;;;;;;;;;;;;;;;11.88;54.27;99286.22;5024019;28;19932;-86
2022/03/30 06:18:03;;;;;;;;;;;;;;;11.90;52.93;99289.69;5009016;28;19921;-86
2022/03/30 06:20:28;;;;;;;;;;;;;;;11.40;54.09;99281.28;5008826;28;20051;-86
2022/03/30 06:22:54;;;;;;;;;;;;;;;11.60;54.25;99275.50;5008195;28;20032;-86
2022/03/30 06:25:22;;;;;;;;;;;;;;;11.68;53.65;99272.66;5009050;28;19925;-86
2022/03/30 06:27:48;;;;;;;;;;;;;;;11.91;52.87;99280.84;5009158;28;19924;-86
2022/03/30 06:30:14;;;;;;;;;;;;;;;12.33;50.98;99277.94;5023928;28;20012;-86
2022/03/30 06:32:39;;;;;;;;;;;;;;;12.69;51.71;99284.84;5008473;28;20019;-86
2022/03/30 06:35:04;;;;;;;;;;;;;;;12.92;51.43;99288.59;5008919;28;19918;-86
2022/03/30 06:37:30;;;;;;;;;;;;;;;12.99;51.31;99288.34;5009270;28;19926;-86
2022/03/30 06:39:55;;;;;;;;;;;;;;;13.48;49.98;99293.84;5008353;28;20284;-87
2022/03/30 06:42:21;;;;;;;;;;;;;;;13.55;48.88;99292.75;5008962;28;20304;-86
2022/03/30 06:44:46;;;;;;;;;;;;;;;13.89;49.65;99296.88;5008467;28;19922;-86
2022/03/30 06:47:12;;;;;;;;;;;;;;;14.03;47.70;99292.91;5008508;28;19922;-87
2022/03/30 06:49:38;;;;;;;;;;;;;;;14.31;48.15;99290.09;5006997;28;19980;-86
2022/03/30 06:52:04;;;;;;;;;;;;;;;14.21;48.55;99297.53;5007007;28;19913;-87
2022/03/30 06:54:29;;;;;;;;;;;;;;;14.54;48.12;99297.22;5022955;28;19980;-87
2022/03/30 06:56:55;;;;;;;;;;;;;;;15.00;47.84;99305.22;5008318;28;20379;-87
2022/03/30 06:59:20;;;;;;;;;;;;;;;15.33;46.49;99303.00;5039619;28;19917;-87
2022/03/30 07:01:45;;;;;;;;;;;;;;;15.33;46.85;99294.16;5039280;28;19925;-86
2022/03/30 07:04:11;;;;;;;;;;;;;;;15.80;45.97;99304.66;5039216;28;19925;-87
2022/03/30 07:06:36;;;;;;;;;;;;;;;16.11;45.42;99301.53;5007465;28;19920;-87
2022/03/30 07:11:45;;;;;;;;;;;;;;;17.03;43.49;99300.06;5007333;28;20421;-87
2022/03/30 07:14:11;;;;;;;;;;;;;;;17.35;41.92;99302.03;5008142;28;19956;-87
2022/03/30 07:16:36;;;;;;;;;;;;;;;17.66;39.66;99307.66;5039331;28;19956;-88
2022/03/30 07:19:01;;;;;;;;;;;;;;;17.83;40.00;99306.78;5007695;28;20388;-86
2022/03/30 07:21:27;;;;;;;;;;;;;;;18.11;40.11;99308.91;5008364;28;19932;-85
2022/03/30 07:23:52;;;;;;;;;;;;;;;17.97;40.84;99306.13;5007982;28;19921;-86
2022/03/30 07:26:17;;;;;;;;;;;;;;;18.13;37.65;99299.00;5005856;28;19929;-86
2022/03/30 07:28:43;;;;;;;;;;;;;;;18.61;37.46;99292.00;5007430;28;19921;-85
2022/03/30 07:31:08;;;;;;;;;;;;;;;18.29;39.03;99296.41;5020558;28;19918;-87
2022/03/30 07:33:34;;;;;;;;;;;;;;;18.46;39.32;99294.63;5006901;28;19976;-86
2022/03/30 07:36:00;;;;;;;;;;;;;;;18.60;38.40;99287.59;5007861;28;20363;-86
2022/03/30 07:38:25;;;;;;;;;;;;;;;18.52;39.18;99278.28;5006592;28;19921;-85
2022/03/30 07:40:52;;;;;;;;;;;;;;;18.16;39.50;99284.66;5007690;28;19937;-85
2022/03/30 07:43:18;;;;;;;;;;;;;;;18.38;39.73;99285.25;5007592;28;19921;-85
2022/03/30 07:45:45;;;;;;;;;;;;;;;18.67;38.80;99287.28;5038817;28;19926;-86
2022/03/30 07:48:10;;;;;;;;;;;;;;;18.93;38.82;99293.88;5007387;28;19952;-86
2022/03/30 07:50:36;;;;;;;;;;;;;;;18.65;38.60;99292.69;5007112;28;19922;-86
2022/03/30 07:53:02;;;;;;;;;;;;;;;18.79;38.42;99298.13;5007363;28;20376;-86
2022/03/30 07:55:28;;;;;;;;;;;;;;;18.70;38.53;99293.28;5007605;28;19922;-86
2022/03/30 07:57:54;;;;;;;;;;;;;;;18.89;40.57;99295.00;5007527;28;19955;-86
2022/03/30 08:00:21;;;;;;;;;;;;;;;19.55;37.82;99287.69;5006540;28;19925;-86
2022/03/30 08:02:47;;;;;;;;;;;;;;;19.34;38.16;99298.69;5007748;28;20404;-85
2022/03/30 08:05:13;;;;;;;;;;;;;;;19.54;36.49;99294.00;5006995;28;19922;-87
2022/03/30 08:07:39;;;;;;;;;;;;;;;19.13;38.31;99298.94;5006824;28;20454;-85
2022/03/30 08:10:05;;;;;;;;;;;;;;;19.27;37.72;99298.16;5007303;28;19918;-85
2022/03/30 08:12:31;;;;;;;;;;;;;;;19.09;37.20;99289.41;5006699;28;19921;-86
2022/03/30 08:14:56;;;;;;;;;;;;;;;18.76;38.05;99287.63;5007348;28;19921;-85
2022/03/30 08:17:21;;;;;;;;;;;;;;;19.03;37.14;99276.38;5006807;28;19930;-86
2022/03/30 08:19:47;;;;;;;;;;;;;;;19.17;37.81;99272.94;5007022;28;19921;-86
2022/03/30 08:22:28;;;;;;;;;;;;;;;18.99;37.29;99264.13;5038457;28;20383;-86
2022/03/30 08:24:53;;;;;;;;;;;;;;;19.08;37.05;99254.75;5006939;28;19964;-86
2022/03/30 08:27:20;;;;;;;;;;;;;;;19.13;37.59;99258.84;5007056;28;19979;-86
2022/03/30 08:29:46;;;;;;;;;;;;;;;19.22;36.76;99260.16;5006834;28;19921;-86
2022/03/30 08:32:12;;;;;;;;;;;;;;;19.56;36.86;99260.84;5007247;28;19921;-87
2022/03/30 08:34:38;;;;;;;;;;;;;;;19.42;36.70;99253.66;5006720;28;20008;-86
2022/03/30 08:37:04;;;;;;;;;;;;;;;19.55;36.40;99252.91;5006705;28;19925;-87
2022/03/30 08:39:29;;;;;;;;;;;;;;;19.63;35.46;99261.34;5007214;28;19919;-87
2022/03/30 08:41:55;;;;;;;;;;;;;;;19.90;34.11;99253.53;5006073;28;19995;-86
2022/03/30 08:44:21;;;;;;;;;;;;;;;20.17;33.97;99255.47;5010078;28;19928;-85
2022/03/30 08:46:46;;;;;;;;;;;;;;;20.21;34.17;99255.19;5010253;28;19921;-83
2022/03/30 08:49:13;;;;;;;;;;;;;;;20.28;35.82;99249.44;5010730;28;19921;-84
2022/03/30 08:51:39;;;;;;;;;;;;;;;20.27;35.14;99250.41;5025672;28;20407;-84
2022/03/30 08:54:05;;;;;;;;;;;;;;;20.76;34.63;99242.00;5010216;28;19928;-83
2022/03/30 08:56:31;;;;;;;;;;;;;;;20.85;34.76;99244.06;5010609;28;20383;-84
2022/03/30 08:59:06;;;;;;;;;;;;;;;20.26;33.68;99238.81;5009720;28;20386;-85
2022/03/30 09:01:35;;;;;;;;;;;;;;;20.46;34.37;99234.91;5010613;28;20320;-85
2022/03/30 09:04:02;;;;;;;;;;;;;;;20.07;34.21;99232.91;5025287;28;19988;-85
2022/03/30 09:06:39;;;;;;;;;;;;;;;19.96;33.46;99228.22;5010498;28;20389;-85
2022/03/30 09:09:06;;;;;;;;;;;;;;;20.11;33.76;99213.88;5024332;28;20363;-85
2022/03/30 09:11:55;;;;;;;;;;;;;;;20.28;32.78;99211.94;5010459;28;19922;-85
2022/03/30 09:14:21;;;;;;;;;;;;;;;20.55;33.09;99207.53;5025219;28;19940;-83
2022/03/30 09:16:48;;;;;;;;;;;;;;;20.77;33.02;99203.50;5024702;28;20328;-83
2022/03/30 09:19:15;;;;;;;;;;;;;;;20.44;32.31;99193.97;5009924;28;20000;-83
2022/03/30 09:21:41;;;;;;;;;;;;;;;20.54;32.74;99195.09;5010101;28;20012;-83
2022/03/30 09:24:07;;;;;;;;;;;;;;;20.48;32.42;99186.56;5010183;28;19921;-83
2022/03/30 09:26:32;;;;;;;;;;;;;;;20.63;32.27;99180.22;5009755;28;19925;-83
2022/03/30 09:28:58;;;;;;;;;;;;;;;20.63;32.58;99182.06;5009602;28;19957;-84
2022/03/30 09:31:25;;;;;;;;;;;;;;;20.53;31.90;99189.84;5010171;28;20380;-84
2022/03/30 09:33:53;;;;;;;;;;;;;;;20.73;30.48;99169.81;5009063;28;19921;-84
2022/03/30 09:36:31;;;;;;;;;;;;;;;20.64;31.29;99165.03;5009657;28;19944;-84
2022/03/30 09:38:57;;;;;;;;;;;;;;;20.72;32.15;99154.69;5009952;28;19947;-82
2022/03/30 09:41:22;;;;;;;;;;;;;;;20.71;31.81;99151.16;5009456;28;20454;-83
2022/03/30 09:43:48;;;;;;;;;;;;;;;20.85;31.53;99142.22;5041383;28;19964;-83
2022/03/30 09:46:15;;;;;;;;;;;;;;;20.99;32.65;99140.41;5009444;28;19925;-83
2022/03/30 09:48:52;;;;;;;;;;;;;;;20.71;32.51;99134.22;5009431;28;19964;-83
2022/03/30 09:51:19;;;;;;;;;;;;;;;21.10;32.50;99136.06;5009889;28;20443;-83
2022/03/30 09:53:44;;;;;;;;;;;;;;;21.07;31.83;99130.91;5009252;28;19924;-84
2022/03/30 09:56:19;;;;;;;;;;;;;;;21.42;32.70;99124.94;5009177;28;19929;-83
2022/03/30 09:58:45;;;;;;;;;;;;;;;21.15;32.17;99110.75;5009757;28;19924;-84
2022/03/30 10:01:14;;;;;;;;;;;;;;;20.96;32.85;99116.50;5008905;28;19925;-84
2022/03/30 10:03:59;;;;;;;;;;;;;;;21.24;31.14;99112.78;5009139;28;20390;-83
2022/03/30 10:06:26;;;;;;;;;;;;;;;21.00;32.79;99115.34;5009339;28;19918;-84
2022/03/30 10:08:52;;;;;;;;;;;;;;;21.35;32.86;99104.88;5009015;28;19921;-84
2022/03/30 10:11:18;;;;;;;;;;;;;;;21.67;31.55;99100.94;5009151;28;19940;-83
2022/03/30 10:13:48;;;;;;;;;;;;;;;21.42;31.30;99091.91;5009448;28;19924;-85
2022/03/30 10:16:13;;;;;;;;;;;;;;;21.31;31.38;99089.13;5009274;28;19921;-83
2022/03/30 10:18:39;;;;;;;;;;;;;;;21.27;30.98;99083.06;5008956;28;19922;-84
2022/03/30 10:21:07;;;;;;;;;;;;;;;21.36;30.54;99095.00;5008936;28;20380;-84
2022/03/30 10:23:35;;;;;;;;;;;;;;;21.52;29.87;99086.78;5007870;28;19937;-84
2022/03/30 10:26:15;;;;;;;;;;;;;;;21.37;30.48;99084.16;5008713;28;20796;-85
2022/03/30 10:28:43;;;;;;;;;;;;;;;21.58;29.44;99080.97;5008312;28;19917;-85
2022/03/30 10:31:09;;;;;;;;;;;;;;;21.53;28.71;99077.78;5008668;28;19928;-87
2022/03/30 10:33:44;;;;;;;;;;;;;;;21.72;28.92;99085.38;5008258;28;19922;-85
2022/03/30 10:36:29;;;;;;;;;;;;;;;22.24;28.05;99084.31;5007838;28;20414;-84
2022/03/30 10:39:14;;;;;;;;;;;;;;;22.10;28.52;99077.25;5006513;28;20293;-85
2022/03/30 10:41:46;;;;;;;;;;;;;;;22.47;28.72;99079.13;5008402;28;19987;-83
2022/03/30 10:44:30;;;;;;;;;;;;;;;22.53;28.54;99078.66;5008379;28;20706;-84
2022/03/30 10:47:05;;;;;;;;;;;;;;;22.62;28.07;99066.38;5008158;28;19921;-83
2022/03/30 10:49:41;;;;;;;;;;;;;;;22.54;27.58;99066.94;5008170;28;20378;-83
2022/03/30 10:52:25;;;;;;;;;;;;;;;22.43;28.51;99058.81;5007610;28;19979;-83
2022/03/30 10:54:55;;;;;;;;;;;;;;;22.27;27.28;99057.22;5008026;28;19976;-83
2022/03/30 10:57:39;;;;;;;;;;;;;;;22.32;28.03;99055.09;5008173;28;19921;-84
2022/03/30 11:00:06;;;;;;;;;;;;;;;22.30;27.88;99054.34;5007676;28;19921;-84
2022/03/30 11:02:40;;;;;;;;;;;;;;;22.44;28.22;99050.63;5008384;28;19925;-84
2022/03/30 11:05:09;;;;;;;;;;;;;;;22.21;26.84;99044.25;5006999;28;20384;-85
2022/03/30 11:07:35;;;;;;;;;;;;;;;22.19;27.38;99035.44;5006362;28;19921;-84
2022/03/30 11:10:14;;;;;;;;;;;;;;;21.99;27.43;99028.84;5007986;28;19921;-84
2022/03/30 11:12:58;;;;;;;;;;;;;;;22.28;27.05;99028.53;5007565;28;20330;-84
2022/03/30 11:15:24;;;;;;;;;;;;;;;22.53;26.77;99016.84;5008150;28;19927;-84
2022/03/30 11:17:49;;;;;;;;;;;;;;;22.45;26.84;99012.06;5008510;28;20502;-84
2022/03/30 11:20:16;;;;;;;;;;;;;;;22.46;26.84;99012.91;5039468;28;19944;-84
2022/03/30 11:22:44;;;;;;;;;;;;;;;22.63;26.84;99006.25;5007447;28;19921;-84
2022/03/30 11:25:19;;;;;;;;;;;;;;;22.52;26.97;98996.31;5008077;28;19921;-84
2022/03/30 11:28:04;;;;;;;;;;;;;;;22.23;26.33;99003.84;5006947;28;20426;-84
2022/03/30 11:30:31;;;;;;;;;;;;;;;22.21;25.49;98990.53;5007630;28;19957;-84
2022/03/30 11:32:58;;;;;;;;;;;;;;;21.94;26.65;98982.69;5022922;28;19918;-84
2022/03/30 11:35:25;;;;;;;;;;;;;;;22.06;26.87;98968.38;5007996;28;20697;-85
2022/03/30 11:38:27;;;;;;;;;;;;;;;22.52;27.80;98958.69;5007232;28;19922;-85
2022/03/30 11:41:02;;;;;;;;;;;;;;;22.97;25.64;98939.13;5044266;28;19927;-84
2022/03/30 11:43:27;;;;;;;;;;;;;;;22.96;25.98;98942.81;5024808;28;19917;-84
2022/03/30 11:45:53;;;;;;;;;;;;;;;23.04;26.41;98941.22;5007379;28;19930;-84
2022/03/30 11:48:19;;;;;;;;;;;;;;;23.21;25.60;98947.13;5007968;28;19921;-84
2022/03/30 11:50:45;;;;;;;;;;;;;;;23.24;26.24;98930.75;5007234;28;20311;-85
2022/03/30 11:53:14;;;;;;;;;;;;;;;23.07;25.49;98930.22;5039436;28;20350;-84
2022/03/30 11:55:52;;;;;;;;;;;;;;;23.11;25.84;98925.50;5007571;28;19940;-84
2022/03/30 11:58:23;;;;;;;;;;;;;;;23.11;27.82;98924.63;5007462;28;19943;-85
2022/03/30 12:00:48;;;;;;;;;;;;;;;23.13;27.25;98928.06;5007788;28;19929;-85
2022/03/30 12:03:14;;;;;;;;;;;;;;;23.16;26.38;98919.75;5039364;28;19922;-84
2022/03/30 12:05:39;;;;;;;;;;;;;;;22.96;27.52;98919.47;5007362;28;20000;-84
2022/03/30 12:08:04;;;;;;;;;;;;;;;23.01;27.51;98921.78;5007664;28;20012;-84
2022/03/30 12:10:33;;;;;;;;;;;;;;;22.53;27.34;98920.94;5007494;28;19987;-85
2022/03/30 12:12:59;;;;;;;;;;;;;;;22.90;28.47;98903.81;5007283;28;19926;-84
2022/03/30 12:15:25;;;;;;;;;;;;;;;23.07;28.64;98905.16;5007199;28;20400;-84
2022/03/30 12:17:52;;;;;;;;;;;;;;;22.89;27.24;98899.41;5039327;28;19921;-84
2022/03/30 12:20:22;;;;;;;;;;;;;;;22.87;26.92;98899.50;5011235;28;20103;-84
2022/03/30 12:22:53;;;;;;;;;;;;;;;22.93;27.14;98892.81;5010887;28;19918;-84
2022/03/30 12:25:18;;;;;;;;;;;;;;;22.65;27.17;98897.66;5043224;28;19933;-84
2022/03/30 12:27:44;;;;;;;;;;;;;;;22.98;27.58;98895.97;5043078;28;19922;-84
2022/03/30 12:30:09;;;;;;;;;;;;;;;23.02;27.17;98896.63;5011177;28;19922;-84
2022/03/30 12:32:35;;;;;;;;;;;;;;;22.98;27.63;98881.69;5042929;28;19922;-85
2022/03/30 12:35:11;;;;;;;;;;;;;;;22.95;27.71;98881.94;5011063;28;20039;-83
2022/03/30 12:37:36;;;;;;;;;;;;;;;22.95;27.16;98879.25;5010786;28;19922;-83
2022/03/30 12:40:09;;;;;;;;;;;;;;;22.77;27.63;98874.34;5010864;28;19933;-83
2022/03/30 12:42:34;;;;;;;;;;;;;;;22.78;27.98;98873.34;5010952;28;19979;-83
2022/03/30 12:45:01;;;;;;;;;;;;;;;22.71;27.54;98869.47;5010970;28;20350;-85
2022/03/30 12:47:31;;;;;;;;;;;;;;;22.69;27.37;98860.63;5010186;28;19926;-84
2022/03/30 12:49:57;;;;;;;;;;;;;;;22.93;27.06;98867.75;5010817;28;19921;-84
2022/03/30 12:52:32;;;;;;;;;;;;;;;23.07;27.12;98860.28;5043466;28;19921;-84
2022/03/30 12:55:11;;;;;;;;;;;;;;;23.36;27.47;98857.13;5010922;28;19921;-84